createdAt,value
2023-05-19T00:00:11.179Z,17.80
2023-05-19T00:04:15.453Z,17.58
2023-05-19T00:08:19.466Z,17.48
2023-05-19T00:12:20.894Z,17.59
2023-05-19T00:16:22.240Z,17.57
2023-05-19T00:20:25.742Z,17.57
2023-05-19T00:24:26.184Z,17.49
2023-05-19T00:28:26.540Z,17.60
2023-05-19T00:32:27.108Z,17.37
2023-05-19T00:36:30.171Z,17.30
2023-05-19T00:40:33.586Z,17.01
2023-05-19T00:44:34.453Z,16.73
2023-05-19T00:48:34.677Z,17.04
2023-05-19T00:52:37.587Z,17.06
2023-05-19T00:56:38.175Z,17.00
2023-05-19T01:00:39.911Z,17.15
2023-05-19T01:04:44.088Z,17.32
2023-05-19T01:08:46.876Z,17.21
2023-05-19T01:12:47.152Z,17.31
2023-05-19T01:16:56.959Z,17.46
2023-05-19T01:21:14.806Z,17.85
2023-05-19T01:26:04.139Z,17.78
2023-05-19T01:30:39.862Z,17.84
2023-05-19T01:34:46.728Z,17.86
2023-05-19T01:38:48.514Z,17.80
2023-05-19T01:42:50.055Z,17.74
2023-05-19T01:46:54.699Z,17.89
2023-05-19T01:50:57.464Z,17.93
2023-05-19T01:54:57.697Z,17.92
2023-05-19T01:59:10.227Z,17.90
2023-05-19T02:03:33.334Z,17.65
2023-05-19T02:07:44.388Z,17.57
2023-05-19T02:11:53.319Z,17.30
2023-05-19T02:15:57.117Z,17.24
2023-05-19T02:20:00.247Z,17.25
2023-05-19T02:24:00.522Z,17.30
2023-05-19T02:28:02.227Z,17.23
2023-05-19T02:32:04.356Z,17.21
2023-05-19T02:36:09.249Z,17.28
2023-05-19T02:40:11.799Z,17.29
2023-05-19T02:44:11.923Z,17.30
2023-05-19T02:48:12.311Z,17.22
2023-05-19T02:52:15.225Z,17.30
2023-05-19T02:56:15.709Z,17.13
2023-05-19T03:00:17.769Z,17.06
2023-05-19T03:04:20.316Z,16.88
2023-05-19T03:08:23.349Z,16.96
2023-05-19T03:12:23.684Z,16.91
2023-05-19T03:16:24.149Z,16.89
2023-05-19T03:20:24.859Z,16.89
2023-05-19T03:24:27.864Z,16.95
2023-05-19T03:28:29.535Z,17.05
2023-05-19T03:32:30.142Z,16.97
2023-05-19T03:36:32.233Z,17.08
2023-05-19T03:40:36.426Z,17.11
2023-05-19T03:44:41.756Z,16.86
2023-05-19T03:48:42.733Z,16.75
2023-05-19T03:52:52.091Z,16.93
2023-05-19T03:57:02.451Z,16.81
2023-05-19T04:01:04.030Z,16.68
2023-05-19T04:05:05.265Z,16.63
2023-05-19T04:09:14.049Z,16.71
2023-05-19T04:13:16.960Z,16.88
2023-05-19T04:17:17.299Z,17.09
2023-05-19T04:21:17.483Z,17.14
2023-05-19T04:25:20.191Z,17.42
2023-05-19T04:29:24.422Z,17.39
2023-05-19T04:33:24.959Z,17.50
2023-05-19T04:37:26.141Z,17.75
2023-05-19T04:41:26.905Z,17.75
2023-05-19T04:45:30.360Z,17.95
2023-05-19T04:49:33.329Z,18.03
2023-05-19T04:53:33.582Z,17.79
2023-05-19T04:57:34.259Z,17.61
2023-05-19T05:01:41.099Z,18.02
2023-05-19T05:05:43.980Z,17.91
2023-05-19T05:09:44.634Z,18.26
2023-05-19T05:13:47.165Z,18.44
2023-05-19T05:17:51.675Z,18.57
2023-05-19T05:21:53.221Z,18.51
2023-05-19T05:25:54.500Z,18.69
2023-05-19T05:29:58.601Z,19.05
2023-05-19T05:34:03.458Z,19.42
2023-05-19T05:38:06.710Z,19.35
2023-05-19T05:42:09.310Z,19.19
2023-05-19T05:46:09.769Z,19.67
2023-05-19T05:50:15.789Z,19.91
2023-05-19T05:54:21.747Z,19.67
2023-05-19T05:58:22.518Z,19.94
2023-05-19T06:02:23.305Z,20.07
2023-05-19T06:06:26.251Z,20.41
2023-05-19T06:10:27.171Z,20.48
2023-05-19T06:14:28.995Z,20.79
2023-05-19T06:18:59.129Z,21.32
2023-05-19T06:23:03.734Z,20.58
2023-05-19T06:27:04.134Z,20.92
2023-05-19T06:31:04.730Z,20.29
2023-05-19T06:35:25.219Z,20.94
2023-05-19T06:39:28.095Z,21.21
2023-05-19T06:43:29.036Z,21.37
2023-05-19T06:47:31.588Z,21.50
2023-05-19T06:51:32.627Z,22.05
2023-05-19T06:55:43.980Z,21.89
2023-05-19T06:59:53.882Z,22.29
2023-05-19T07:03:54.718Z,22.49
2023-05-19T07:07:56.315Z,21.99
2023-05-19T07:12:02.341Z,22.62
2023-05-19T07:16:03.527Z,22.37
2023-05-19T07:20:06.866Z,22.61
2023-05-19T07:24:08.185Z,22.51
2023-05-19T07:28:12.248Z,21.47
2023-05-19T07:32:12.706Z,22.01
2023-05-19T07:36:14.525Z,21.73
2023-05-19T07:40:15.819Z,21.39
2023-05-19T07:44:18.720Z,22.56
2023-05-19T07:48:19.054Z,21.81
2023-05-19T07:52:19.655Z,22.07
2023-05-19T07:56:19.849Z,21.81
2023-05-19T08:00:23.520Z,21.80
2023-05-19T08:04:23.818Z,22.43
2023-05-19T08:08:24.111Z,23.15
2023-05-19T08:12:24.291Z,24.43
2023-05-19T08:16:27.206Z,24.05
2023-05-19T08:20:27.512Z,24.56
2023-05-19T08:24:29.639Z,24.06
2023-05-19T08:28:30.357Z,24.28
2023-05-19T08:32:33.212Z,23.91
2023-05-19T08:36:34.192Z,22.66
2023-05-19T08:40:37.816Z,22.63
2023-05-19T08:44:40.277Z,22.79
2023-05-19T08:48:47.186Z,23.63
2023-05-19T08:52:56.031Z,24.50
2023-05-19T08:56:57.593Z,24.09
2023-05-19T09:01:01.028Z,25.19
2023-05-19T09:05:05.651Z,24.58
2023-05-19T09:09:07.432Z,25.60
2023-05-19T09:13:08.875Z,25.79
2023-05-19T09:17:09.686Z,26.13
2023-05-19T09:21:13.454Z,25.84
2023-05-19T09:25:22.628Z,25.51
2023-05-19T09:29:22.906Z,25.39
2023-05-19T09:33:26.681Z,25.57
2023-05-19T09:37:32.421Z,25.32
2023-05-19T09:41:32.770Z,26.83
2023-05-19T09:45:36.712Z,27.70
2023-05-19T09:49:37.057Z,28.02
2023-05-19T09:53:40.705Z,27.98
2023-05-19T09:57:42.843Z,27.58
2023-05-19T10:01:47.771Z,25.85
2023-05-19T10:05:49.796Z,26.85
2023-05-19T10:09:58.554Z,27.24
2023-05-19T10:13:59.769Z,27.03
2023-05-19T10:18:00.456Z,27.21
2023-05-19T10:22:01.078Z,27.95
2023-05-19T10:26:07.982Z,28.96
2023-05-19T10:30:17.574Z,30.73
2023-05-19T10:34:59.859Z,31.11
2023-05-19T10:39:09.039Z,30.44
2023-05-19T10:43:28.389Z,31.55
2023-05-19T10:47:29.057Z,33.08
2023-05-19T10:51:34.619Z,32.09
2023-05-19T10:55:56.368Z,31.06
2023-05-19T11:00:00.860Z,32.09
2023-05-19T11:04:07.204Z,31.64
2023-05-19T11:08:12.272Z,33.77
2023-05-19T11:12:13.592Z,33.83
2023-05-19T11:16:17.436Z,30.49
2023-05-19T11:20:26.464Z,29.10
2023-05-19T11:24:40.953Z,28.46
2023-05-19T11:28:41.755Z,28.57
2023-05-19T11:32:45.395Z,30.23
2023-05-19T11:36:48.431Z,29.56
2023-05-19T11:40:50.027Z,30.09
2023-05-19T11:44:50.620Z,30.42
2023-05-19T11:48:53.758Z,29.98
2023-05-19T11:52:54.677Z,30.52
2023-05-19T11:56:54.984Z,29.94
2023-05-19T12:00:55.378Z,29.63
2023-05-19T12:04:58.400Z,30.57
2023-05-19T12:08:59.526Z,29.21
2023-05-19T12:13:00.966Z,29.70
2023-05-19T12:17:01.461Z,32.62
2023-05-19T12:21:04.363Z,32.25
2023-05-19T12:25:05.559Z,31.34
2023-05-19T12:29:09.341Z,32.37
2023-05-19T12:33:12.177Z,32.67
2023-05-19T12:37:15.290Z,34.13
2023-05-19T12:41:15.829Z,32.55
2023-05-19T12:45:16.167Z,31.46
2023-05-19T12:49:16.519Z,32.00
2023-05-19T12:53:19.384Z,33.10
2023-05-19T12:57:20.234Z,31.96
2023-05-19T13:01:21.922Z,33.60
2023-05-19T13:05:22.948Z,35.55
2023-05-19T13:09:25.985Z,35.55
2023-05-19T13:13:26.336Z,33.82
2023-05-19T13:17:26.937Z,32.85
2023-05-19T13:21:27.185Z,30.87
2023-05-19T13:25:31.334Z,31.24
2023-05-19T13:29:32.118Z,33.24
2023-05-19T13:33:32.384Z,32.15
2023-05-19T13:37:32.977Z,31.35
2023-05-19T13:41:35.891Z,30.49
2023-05-19T13:45:36.509Z,31.49
2023-05-19T13:49:36.754Z,32.62
2023-05-19T13:53:37.605Z,31.01
2023-05-19T13:57:42.744Z,30.50
2023-05-19T14:01:44.379Z,30.19
2023-05-19T14:05:44.655Z,31.06
2023-05-19T14:09:45.116Z,30.13
2023-05-19T14:13:49.081Z,27.30
2023-05-19T14:17:50.214Z,27.81
2023-05-19T14:21:50.418Z,27.95
2023-05-19T14:25:50.675Z,29.00
2023-05-19T14:29:53.412Z,28.96
2023-05-19T14:33:55.243Z,29.90
2023-05-19T14:37:56.172Z,29.35
2023-05-19T14:41:56.650Z,30.18
2023-05-19T14:46:00.237Z,30.01
2023-05-19T14:50:00.531Z,30.24
2023-05-19T14:54:02.306Z,28.60
2023-05-19T14:58:04.495Z,28.13
2023-05-19T15:02:12.124Z,27.64
2023-05-19T15:06:13.170Z,27.45
2023-05-19T15:10:13.752Z,27.28
2023-05-19T15:14:14.113Z,27.54
2023-05-19T15:18:18.922Z,28.11
2023-05-19T15:22:19.120Z,27.73
2023-05-19T15:26:19.565Z,27.54
2023-05-19T15:30:19.779Z,27.91
2023-05-19T15:34:23.062Z,28.57
2023-05-19T15:38:23.395Z,27.81
2023-05-19T15:42:23.625Z,27.57
2023-05-19T15:46:23.941Z,27.58
2023-05-19T15:50:26.953Z,27.15
2023-05-19T15:54:27.562Z,26.94
2023-05-19T15:58:27.784Z,26.96
2023-05-19T16:02:28.258Z,27.39
2023-05-19T16:06:31.354Z,27.17
2023-05-19T16:10:34.727Z,26.12
2023-05-19T16:14:36.971Z,25.96
2023-05-19T16:18:37.211Z,25.96
2023-05-19T16:22:40.453Z,25.42
2023-05-19T16:26:53.943Z,25.41
2023-05-19T16:30:54.385Z,25.47
2023-05-19T16:34:54.878Z,25.19
2023-05-19T16:38:55.143Z,25.09
2023-05-19T16:42:58.622Z,25.25
2023-05-19T16:46:58.987Z,25.31
2023-05-19T16:50:59.701Z,25.38
2023-05-19T16:55:00.248Z,25.23
2023-05-19T16:59:03.161Z,25.52
2023-05-19T17:03:05.011Z,25.28
2023-05-19T17:07:05.716Z,25.16
2023-05-19T17:11:06.680Z,24.81
2023-05-19T17:15:11.724Z,24.91
2023-05-19T17:19:12.234Z,25.34
2023-05-19T17:23:12.690Z,24.93
2023-05-19T17:27:13.286Z,24.36
2023-05-19T17:31:20.596Z,24.49
2023-05-19T17:35:21.385Z,24.19
2023-05-19T17:39:22.022Z,24.21
2023-05-19T17:43:22.610Z,23.87
2023-05-19T17:47:26.072Z,23.92
2023-05-19T17:51:27.480Z,24.18
2023-05-19T17:55:32.802Z,24.35
2023-05-19T17:59:34.193Z,24.18
2023-05-19T18:03:38.517Z,24.26
2023-05-19T18:07:42.149Z,24.02
2023-05-19T18:11:42.803Z,24.17
2023-05-19T18:15:45.876Z,23.58
2023-05-19T18:19:49.885Z,23.85
2023-05-19T18:23:51.084Z,23.39
2023-05-19T18:27:51.720Z,23.35
2023-05-19T18:31:52.138Z,23.40
2023-05-19T18:35:55.983Z,23.10
2023-05-19T18:39:56.636Z,23.02
2023-05-19T18:43:57.308Z,22.80
2023-05-19T18:47:58.156Z,22.88
2023-05-19T18:52:01.791Z,22.71
2023-05-19T18:56:02.176Z,22.57
2023-05-19T19:00:03.403Z,22.54
2023-05-19T19:04:04.316Z,22.42
2023-05-19T19:08:10.375Z,22.34
2023-05-19T19:12:11.044Z,22.24
2023-05-19T19:16:13.719Z,22.08
2023-05-19T19:20:15.412Z,22.05
2023-05-19T19:24:20.521Z,21.87
2023-05-19T19:28:21.273Z,21.96
2023-05-19T19:32:21.633Z,21.62
2023-05-19T19:36:25.227Z,21.76
2023-05-19T19:40:29.436Z,21.77
2023-05-19T19:44:29.907Z,21.67
2023-05-19T19:48:32.581Z,21.57
2023-05-19T19:52:32.926Z,21.53
2023-05-19T19:56:36.239Z,21.36
2023-05-19T20:00:36.556Z,21.28
2023-05-19T20:04:36.943Z,21.42
2023-05-19T20:08:37.345Z,21.17
2023-05-19T20:12:40.285Z,20.98
2023-05-19T20:16:41.400Z,21.11
2023-05-19T20:20:42.087Z,21.27
2023-05-19T20:24:42.494Z,21.28
2023-05-19T20:28:45.725Z,21.09
2023-05-19T20:32:46.953Z,21.09
2023-05-19T20:36:47.494Z,21.06
2023-05-19T20:40:47.735Z,21.25
2023-05-19T20:44:51.601Z,21.24
2023-05-19T20:48:51.937Z,21.30
2023-05-19T20:52:52.272Z,21.40
2023-05-19T20:56:52.446Z,21.48
2023-05-19T21:00:58.161Z,21.61
2023-05-19T21:04:58.777Z,21.66
2023-05-19T21:09:03.687Z,21.71
2023-05-19T21:13:04.620Z,21.69
2023-05-19T21:17:08.446Z,21.58
2023-05-19T21:21:08.953Z,21.69
2023-05-19T21:25:10.818Z,21.54
2023-05-19T21:29:12.447Z,21.55
2023-05-19T21:33:16.187Z,21.81
2023-05-19T21:37:17.399Z,21.77
2023-05-19T21:41:17.745Z,21.92
2023-05-19T21:45:18.127Z,21.90
2023-05-19T21:49:21.239Z,21.77
2023-05-19T21:53:21.521Z,21.76
2023-05-19T21:57:21.867Z,21.88
2023-05-19T22:01:22.478Z,21.97
2023-05-19T22:05:27.413Z,22.05
2023-05-19T22:09:27.929Z,22.17
2023-05-19T22:13:28.138Z,22.35
2023-05-19T22:17:29.185Z,22.19
2023-05-19T22:21:32.187Z,21.79
2023-05-19T22:25:33.416Z,21.99
2023-05-19T22:29:33.633Z,21.91
2023-05-19T22:33:33.864Z,21.66
2023-05-19T22:37:36.988Z,21.88
2023-05-19T22:41:37.707Z,21.79
2023-05-19T22:45:38.689Z,21.71
2023-05-19T22:49:39.077Z,21.61
2023-05-19T22:53:42.687Z,21.82
2023-05-19T22:57:42.964Z,21.47
2023-05-19T23:01:43.248Z,21.49
2023-05-19T23:05:43.545Z,21.56
2023-05-19T23:09:46.362Z,21.59
2023-05-19T23:13:46.573Z,21.70
2023-05-19T23:17:46.735Z,21.66
2023-05-19T23:21:49.181Z,21.87
2023-05-19T23:25:52.052Z,21.56
2023-05-19T23:29:53.767Z,21.56
2023-05-19T23:33:54.310Z,21.44
2023-05-19T23:37:55.957Z,21.10
2023-05-19T23:41:58.705Z,21.23
2023-05-19T23:45:59.017Z,21.44
2023-05-19T23:49:59.256Z,21.40
2023-05-19T23:53:59.478Z,21.33
2023-05-19T23:58:02.302Z,21.23
